sensor_id;sensor_type;location;lat;lon;timestamp;pressure;altitude;pressure_sealevel;temperature;humidity
11710;BME280;5911;51.036;6.972;2023-05-21T00:01:30;100837.13;;;16.40;100.00
11710;BME280;5911;51.036;6.972;2023-05-21T00:03:58;100818.75;;;16.29;100.00
11710;BME280;5911;51.036;6.972;2023-05-21T00:06:28;100827.47;;;16.39;100.00
11710;BME280;5911;51.036;6.972;2023-05-21T00:08:56;100825.09;;;16.36;100.00
11710;BME280;5911;51.036;6.972;2023-05-21T00:11:24;100831.13;;;16.38;100.00
11710;BME280;5911;51.036;6.972;2023-05-21T00:13:54;100827.78;;;16.36;100.00
11710;BME280;5911;51.036;6.972;2023-05-21T00:16:22;100826.94;;;16.35;100.00
11710;BME280;5911;51.036;6.972;2023-05-21T00:18:50;100824.47;;;16.34;100.00
11710;BME280;5911;51.036;6.972;2023-05-21T00:21:20;100821.94;;;16.32;100.00
11710;BME280;5911;51.036;6.972;2023-05-21T00:23:48;100824.78;;;16.31;100.00
11710;BME280;5911;51.036;6.972;2023-05-21T00:26:16;100820.59;;;16.28;100.00
11710;BME280;5911;51.036;6.972;2023-05-21T00:28:46;100820.59;;;16.28;100.00
11710;BME280;5911;51.036;6.972;2023-05-21T00:31:16;100816.09;;;16.29;100.00
11710;BME280;5911;51.036;6.972;2023-05-21T00:33:44;100806.59;;;16.26;100.00
11710;BME280;5911;51.036;6.972;2023-05-21T00:36:12;100802.41;;;16.24;100.00
11710;BME280;5911;51.036;6.972;2023-05-21T00:38:41;100804.09;;;16.25;100.00
11710;BME280;5911;51.036;6.972;2023-05-21T00:41:11;100808.56;;;16.24;100.00
11710;BME280;5911;51.036;6.972;2023-05-21T00:43:39;100792.56;;;16.16;100.00
11710;BME280;5911;51.036;6.972;2023-05-21T00:46:09;100800.75;;;16.23;100.00
11710;BME280;5911;51.036;6.972;2023-05-21T00:48:39;100797.41;;;16.21;100.00
11710;BME280;5911;51.036;6.972;2023-05-21T00:51:08;100796.06;;;16.16;100.00
11710;BME280;5911;51.036;6.972;2023-05-21T00:53:36;100802.72;;;16.21;100.00
11710;BME280;5911;51.036;6.972;2023-05-21T00:56:04;100795.72;;;16.19;100.00
11710;BME280;5911;51.036;6.972;2023-05-21T00:58:33;100788.75;;;16.18;100.00
11710;BME280;5911;51.036;6.972;2023-05-21T01:01:01;100792.41;;;16.17;100.00
11710;BME280;5911;51.036;6.972;2023-05-21T01:03:33;100791.72;;;16.15;100.00
11710;BME280;5911;51.036;6.972;2023-05-21T01:06:07;100791.06;;;16.13;100.00
11710;BME280;5911;51.036;6.972;2023-05-21T01:08:35;100793.72;;;16.13;100.00
11710;BME280;5911;51.036;6.972;2023-05-21T01:11:07;100783.06;;;16.13;100.00
11710;BME280;5911;51.036;6.972;2023-05-21T01:13:38;100787.56;;;16.13;100.00
11710;BME280;5911;51.036;6.972;2023-05-21T01:16:07;100790.22;;;16.13;100.00
11710;BME280;5911;51.036;6.972;2023-05-21T01:18:35;100786.72;;;16.12;100.00
11710;BME280;5911;51.036;6.972;2023-05-21T01:21:05;100794.69;;;16.12;100.00
11710;BME280;5911;51.036;6.972;2023-05-21T01:23:36;100791.06;;;16.13;100.00
11710;BME280;5911;51.036;6.972;2023-05-21T01:26:04;100784.06;;;16.12;100.00
11710;BME280;5911;51.036;6.972;2023-05-21T01:28:33;100788.53;;;16.12;100.00
11710;BME280;5911;51.036;6.972;2023-05-21T01:31:07;100763.34;;;15.98;100.00
11710;BME280;5911;51.036;6.972;2023-05-21T01:33:43;100781.41;;;16.12;100.00
11710;BME280;5911;51.036;6.972;2023-05-21T01:36:17;100777.91;;;16.12;100.00
11710;BME280;5911;51.036;6.972;2023-05-21T01:38:56;100784.06;;;16.12;100.00
11710;BME280;5911;51.036;6.972;2023-05-21T01:41:28;100780.72;;;16.10;100.00
11710;BME280;5911;51.036;6.972;2023-05-21T01:44:01;100772.88;;;16.09;100.00
11710;BME280;5911;51.036;6.972;2023-05-21T01:46:32;100772.03;;;16.08;100.00
11710;BME280;5911;51.036;6.972;2023-05-21T01:49:01;100773.03;;;16.07;100.00
11710;BME280;5911;51.036;6.972;2023-05-21T01:51:29;100762.19;;;16.01;100.00
11710;BME280;5911;51.036;6.972;2023-05-21T01:53:59;100768.69;;;16.06;100.00
11710;BME280;5911;51.036;6.972;2023-05-21T01:56:27;100761.50;;;15.99;100.00
11710;BME280;5911;51.036;6.972;2023-05-21T01:58:55;100771.22;;;16.08;100.00
11710;BME280;5911;51.036;6.972;2023-05-21T02:01:25;100775.00;;;16.05;100.00
11710;BME280;5911;51.036;6.972;2023-05-21T02:03:55;100768.22;;;16.03;100.00
11710;BME280;5911;51.036;6.972;2023-05-21T02:06:24;100768.69;;;16.06;100.00
11710;BME280;5911;51.036;6.972;2023-05-21T02:08:52;100761.72;;;16.05;100.00
11710;BME280;5911;51.036;6.972;2023-05-21T02:11:22;100769.03;;;16.03;100.00
11710;BME280;5911;51.036;6.972;2023-05-21T02:13:50;100769.19;;;16.02;100.00
11710;BME280;5911;51.036;6.972;2023-05-21T02:16:20;100771.03;;;16.01;100.00
11710;BME280;5911;51.036;6.972;2023-05-21T02:18:48;100771.16;;;16.00;100.00
11710;BME280;5911;51.036;6.972;2023-05-21T02:21:17;100771.03;;;16.01;100.00
11710;BME280;5911;51.036;6.972;2023-05-21T02:23:46;100771.03;;;16.01;100.00
11710;BME280;5911;51.036;6.972;2023-05-21T02:26:14;100769.34;;;16.00;100.00
11710;BME280;5911;51.036;6.972;2023-05-21T02:28:44;100772.00;;;16.00;100.00
11710;BME280;5911;51.036;6.972;2023-05-21T02:31:12;100771.31;;;15.98;100.00
11710;BME280;5911;51.036;6.972;2023-05-21T02:33:40;100760.69;;;15.98;100.00
11710;BME280;5911;51.036;6.972;2023-05-21T02:36:08;100773.00;;;15.99;100.00
11710;BME280;5911;51.036;6.972;2023-05-21T02:38:39;100756.47;;;15.88;100.00
11710;BME280;5911;51.036;6.972;2023-05-21T02:41:09;100760.69;;;15.98;100.00
11710;BME280;5911;51.036;6.972;2023-05-21T02:43:37;100744.00;;;15.88;100.00
11710;BME280;5911;51.036;6.972;2023-05-21T02:46:06;100757.03;;;15.99;100.00
11710;BME280;5911;51.036;6.972;2023-05-21T02:48:34;100759.53;;;16.01;100.00
11710;BME280;5911;51.036;6.972;2023-05-21T02:51:04;100758.03;;;15.98;100.00
11710;BME280;5911;51.036;6.972;2023-05-21T02:53:32;100749.19;;;15.98;100.00
11710;BME280;5911;51.036;6.972;2023-05-21T02:56:01;100756.19;;;15.99;100.00
11710;BME280;5911;51.036;6.972;2023-05-21T02:58:29;100758.69;;;16.00;100.00
11710;BME280;5911;51.036;6.972;2023-05-21T03:00:57;100752.69;;;15.98;100.00
11710;BME280;5911;51.036;6.972;2023-05-21T03:03:28;100748.38;;;15.97;100.00
11710;BME280;5911;51.036;6.972;2023-05-21T03:05:56;100731.34;;;15.90;100.00
11710;BME280;5911;51.036;6.972;2023-05-21T03:08:24;100753.38;;;16.00;100.00
11710;BME280;5911;51.036;6.972;2023-05-21T03:10:52;100746.69;;;15.96;100.00
11710;BME280;5911;51.036;6.972;2023-05-21T03:13:20;100738.88;;;15.95;100.00
11710;BME280;5911;51.036;6.972;2023-05-21T03:15:48;100740.38;;;15.97;100.00
11710;BME280;5911;51.036;6.972;2023-05-21T03:18:16;100737.72;;;15.97;100.00
11710;BME280;5911;51.036;6.972;2023-05-21T03:20:45;100736.72;;;15.98;100.00
11710;BME280;5911;51.036;6.972;2023-05-21T03:23:14;100730.56;;;15.98;100.00
11710;BME280;5911;51.036;6.972;2023-05-21T03:25:43;100726.88;;;15.91;100.00
11710;BME280;5911;51.036;6.972;2023-05-21T03:28:12;100737.72;;;15.97;100.00
11710;BME280;5911;51.036;6.972;2023-05-21T03:30:46;100734.38;;;15.95;100.00
11710;BME280;5911;51.036;6.972;2023-05-21T03:33:47;100743.34;;;15.94;100.00
11710;BME280;5911;51.036;6.972;2023-05-21T03:36:25;100745.03;;;15.95;100.00
11710;BME280;5911;51.036;6.972;2023-05-21T03:38:55;100743.34;;;15.94;100.00
11710;BME280;5911;51.036;6.972;2023-05-21T03:41:23;100742.50;;;15.94;100.00
11710;BME280;5911;51.036;6.972;2023-05-21T03:43:57;100750.97;;;15.89;100.00
11710;BME280;5911;51.036;6.972;2023-05-21T03:46:31;100737.66;;;15.89;100.00
11710;BME280;5911;51.036;6.972;2023-05-21T03:49:05;100742.00;;;15.90;100.00
11710;BME280;5911;51.036;6.972;2023-05-21T03:51:37;100743.50;;;15.93;100.00
11710;BME280;5911;51.036;6.972;2023-05-21T03:54:07;100744.66;;;15.90;100.00
11710;BME280;5911;51.036;6.972;2023-05-21T03:56:36;100736.31;;;15.85;100.00
11710;BME280;5911;51.036;6.972;2023-05-21T03:59:04;100740.31;;;15.89;100.00
11710;BME280;5911;51.036;6.972;2023-05-21T04:01:32;100732.34;;;15.89;100.00
11710;BME280;5911;51.036;6.972;2023-05-21T04:04:00;100735.69;;;15.91;100.00
11710;BME280;5911;51.036;6.972;2023-05-21T04:06:30;100741.84;;;15.92;100.00
11710;BME280;5911;51.036;6.972;2023-05-21T04:08:59;100742.66;;;15.92;100.00
11710;BME280;5911;51.036;6.972;2023-05-21T04:11:27;100742.66;;;15.92;100.00
11710;BME280;5911;51.036;6.972;2023-05-21T04:13:54;100739.31;;;15.90;100.00
11710;BME280;5911;51.036;6.972;2023-05-21T04:16:22;100733.84;;;15.92;100.00
11710;BME280;5911;51.036;6.972;2023-05-21T04:18:51;100733.34;;;15.88;100.00
11710;BME280;5911;51.036;6.972;2023-05-21T04:21:22;100732.88;;;15.93;100.00
11710;BME280;5911;51.036;6.972;2023-05-21T04:23:50;100734.53;;;15.94;100.00
11710;BME280;5911;51.036;6.972;2023-05-21T04:26:27;100738.03;;;15.94;100.00
11710;BME280;5911;51.036;6.972;2023-05-21T04:28:59;100738.03;;;15.94;100.00
11710;BME280;5911;51.036;6.972;2023-05-21T04:31:28;100738.19;;;15.93;100.00
11710;BME280;5911;51.036;6.972;2023-05-21T04:33:57;100734.38;;;15.95;100.00
11710;BME280;5911;51.036;6.972;2023-05-21T04:36:25;100736.34;;;15.93;100.00
11710;BME280;5911;51.036;6.972;2023-05-21T04:38:55;100739.69;;;15.95;100.00
11710;BME280;5911;51.036;6.972;2023-05-21T04:41:23;100742.38;;;15.95;100.00
11710;BME280;5911;51.036;6.972;2023-05-21T04:43:52;100742.22;;;15.97;100.00
11710;BME280;5911;51.036;6.972;2023-05-21T04:46:24;100736.88;;;15.97;100.00
11710;BME280;5911;51.036;6.972;2023-05-21T04:48:52;100738.56;;;15.98;100.00
11710;BME280;5911;51.036;6.972;2023-05-21T04:51:22;100738.72;;;15.96;100.00
11710;BME280;5911;51.036;6.972;2023-05-21T04:53:52;100738.25;;;16.01;100.00
11710;BME280;5911;51.036;6.972;2023-05-21T04:56:20;100738.41;;;15.99;100.00
11710;BME280;5911;51.036;6.972;2023-05-21T04:58:48;100743.72;;;15.99;100.00
11710;BME280;5911;51.036;6.972;2023-05-21T05:01:17;100739.94;;;16.02;100.00
11710;BME280;5911;51.036;6.972;2023-05-21T05:03:45;100738.75;;;16.04;100.00
11710;BME280;5911;51.036;6.972;2023-05-21T05:06:13;100738.75;;;16.04;100.00
11710;BME280;5911;51.036;6.972;2023-05-21T05:08:42;100737.94;;;16.04;100.00
11710;BME280;5911;51.036;6.972;2023-05-21T05:11:13;100739.44;;;16.06;100.00
11710;BME280;5911;51.036;6.972;2023-05-21T05:13:40;100735.28;;;16.04;100.00
11710;BME280;5911;51.036;6.972;2023-05-21T05:16:08;100701.22;;;15.81;100.00
11710;BME280;5911;51.036;6.972;2023-05-21T05:18:41;100747.09;;;16.09;100.00
11710;BME280;5911;51.036;6.972;2023-05-21T05:21:10;100747.09;;;16.09;100.00
11710;BME280;5911;51.036;6.972;2023-05-21T05:23:38;100723.44;;;15.98;100.00
11710;BME280;5911;51.036;6.972;2023-05-21T05:26:07;100744.13;;;16.12;100.00
11710;BME280;5911;51.036;6.972;2023-05-21T05:28:35;100744.81;;;16.14;100.00
11710;BME280;5911;51.036;6.972;2023-05-21T05:31:03;100719.31;;;16.04;100.00
11710;BME280;5911;51.036;6.972;2023-05-21T05:33:31;100742.69;;;16.18;100.00
11710;BME280;5911;51.036;6.972;2023-05-21T05:36:01;100743.16;;;16.22;100.00
11710;BME280;5911;51.036;6.972;2023-05-21T05:38:28;100740.50;;;16.22;100.00
11710;BME280;5911;51.036;6.972;2023-05-21T05:40:56;100743.84;;;16.24;100.00
11710;BME280;5911;51.036;6.972;2023-05-21T05:43:25;100746.34;;;16.25;100.00
11710;BME280;5911;51.036;6.972;2023-05-21T05:45:54;100727.88;;;16.24;100.00
11710;BME280;5911;51.036;6.972;2023-05-21T05:48:22;100729.91;;;16.30;100.00
11710;BME280;5911;51.036;6.972;2023-05-21T05:50:50;100742.09;;;16.32;100.00
11710;BME280;5911;51.036;6.972;2023-05-21T05:53:22;100729.25;;;16.36;100.00
11710;BME280;5911;51.036;6.972;2023-05-21T05:55:50;100738.59;;;16.40;100.00
11710;BME280;5911;51.036;6.972;2023-05-21T05:58:18;100726.97;;;16.41;100.00
11710;BME280;5911;51.036;6.972;2023-05-21T06:00:56;100730.97;;;16.45;100.00
11710;BME280;5911;51.036;6.972;2023-05-21T06:03:26;100730.97;;;16.45;100.00
11710;BME280;5911;51.036;6.972;2023-05-21T06:05:55;100722.69;;;16.48;100.00
11710;BME280;5911;51.036;6.972;2023-05-21T06:08:26;100714.00;;;16.46;100.00
11710;BME280;5911;51.036;6.972;2023-05-21T06:10:54;100724.16;;;16.50;100.00
11710;BME280;5911;51.036;6.972;2023-05-21T06:13:22;100716.00;;;16.52;100.00
11710;BME280;5911;51.036;6.972;2023-05-21T06:15:51;100723.69;;;16.55;100.00
11710;BME280;5911;51.036;6.972;2023-05-21T06:18:19;100731.69;;;16.55;100.00
11710;BME280;5911;51.036;6.972;2023-05-21T06:20:47;100718.03;;;16.58;100.00
11710;BME280;5911;51.036;6.972;2023-05-21T06:23:19;100718.72;;;16.60;100.00
11710;BME280;5911;51.036;6.972;2023-05-21T06:25:49;100715.78;;;16.63;100.00
11710;BME280;5911;51.036;6.972;2023-05-21T06:28:20;100712.56;;;16.60;100.00
11710;BME280;5911;51.036;6.972;2023-05-21T06:30:48;100704.22;;;16.54;100.00
11710;BME280;5911;51.036;6.972;2023-05-21T06:33:18;100709.75;;;16.61;100.00
11710;BME280;5911;51.036;6.972;2023-05-21T06:35:47;100722.06;;;16.62;100.00
11710;BME280;5911;51.036;6.972;2023-05-21T06:38:14;100719.75;;;16.67;100.00
11710;BME280;5911;51.036;6.972;2023-05-21T06:40:43;100706.09;;;16.62;100.00
11710;BME280;5911;51.036;6.972;2023-05-21T06:43:24;100719.28;;;16.72;100.00
11710;BME280;5911;51.036;6.972;2023-05-21T06:46:12;100719.44;;;16.70;100.00
11710;BME280;5911;51.036;6.972;2023-05-21T06:48:43;100691.06;;;16.53;100.00
11710;BME280;5911;51.036;6.972;2023-05-21T06:51:14;100724.44;;;16.73;100.00
11710;BME280;5911;51.036;6.972;2023-05-21T06:53:42;100723.47;;;16.74;100.00
11710;BME280;5911;51.036;6.972;2023-05-21T06:56:09;100722.47;;;16.75;100.00
11710;BME280;5911;51.036;6.972;2023-05-21T06:58:42;100727.13;;;16.73;100.00
11710;BME280;5911;51.036;6.972;2023-05-21T07:01:10;100725.13;;;16.75;100.00
11710;BME280;5911;51.036;6.972;2023-05-21T07:03:40;100730.13;;;16.78;100.00
11710;BME280;5911;51.036;6.972;2023-05-21T07:06:08;100729.16;;;16.79;100.00
11710;BME280;5911;51.036;6.972;2023-05-21T07:08:36;100730.16;;;16.86;100.00
11710;BME280;5911;51.036;6.972;2023-05-21T07:11:05;100725.66;;;16.87;100.00
11710;BME280;5911;51.036;6.972;2023-05-21T07:13:34;100704.81;;;16.74;100.00
11710;BME280;5911;51.036;6.972;2023-05-21T07:16:03;100743.66;;;17.01;100.00
11710;BME280;5911;51.036;6.972;2023-05-21T07:18:37;100713.50;;;16.93;100.00
11710;BME280;5911;51.036;6.972;2023-05-21T07:21:06;100724.84;;;17.03;100.00
11710;BME280;5911;51.036;6.972;2023-05-21T07:23:35;100734.34;;;17.13;100.00
11710;BME280;5911;51.036;6.972;2023-05-21T07:26:04;100732.19;;;17.17;100.00
11710;BME280;5911;51.036;6.972;2023-05-21T07:28:34;100738.72;;;17.22;100.00
11710;BME280;5911;51.036;6.972;2023-05-21T07:31:04;100741.38;;;17.31;100.00
11710;BME280;5911;51.036;6.972;2023-05-21T07:33:40;100744.03;;;17.31;100.00
11710;BME280;5911;51.036;6.972;2023-05-21T07:36:10;100739.22;;;17.34;100.00
11710;BME280;5911;51.036;6.972;2023-05-21T07:38:40;100733.56;;;17.37;100.00
11710;BME280;5911;51.036;6.972;2023-05-21T07:41:11;100736.88;;;17.39;100.00
11710;BME280;5911;51.036;6.972;2023-05-21T07:43:40;100743.91;;;17.40;100.00
11710;BME280;5911;51.036;6.972;2023-05-21T07:46:10;100743.53;;;17.43;100.00
11710;BME280;5911;51.036;6.972;2023-05-21T07:48:38;100740.72;;;17.45;100.00
11710;BME280;5911;51.036;6.972;2023-05-21T07:51:07;100737.88;;;17.46;100.00
11710;BME280;5911;51.036;6.972;2023-05-21T07:53:35;100740.88;;;17.51;100.00
11710;BME280;5911;51.036;6.972;2023-05-21T07:56:06;100739.22;;;17.50;100.00
11710;BME280;5911;51.036;6.972;2023-05-21T07:58:34;100738.72;;;17.55;100.00
11710;BME280;5911;51.036;6.972;2023-05-21T08:01:02;100743.53;;;17.59;100.00
11710;BME280;5911;51.036;6.972;2023-05-21T08:03:32;100739.88;;;17.61;100.00
11710;BME280;5911;51.036;6.972;2023-05-21T08:06:00;100732.69;;;17.61;100.00
11710;BME280;5911;51.036;6.972;2023-05-21T08:08:28;100729.88;;;17.54;100.00
11710;BME280;5911;51.036;6.972;2023-05-21T08:10:57;100729.88;;;17.54;100.00
11710;BME280;5911;51.036;6.972;2023-05-21T08:13:26;100729.53;;;17.49;100.00
11710;BME280;5911;51.036;6.972;2023-05-21T08:15:56;100734.22;;;17.47;100.00
11710;BME280;5911;51.036;6.972;2023-05-21T08:18:25;100736.88;;;17.39;100.00
11710;BME280;5911;51.036;6.972;2023-05-21T08:20:56;100741.03;;;17.42;100.00
11710;BME280;5911;51.036;6.972;2023-05-21T08:23:26;100743.53;;;17.43;100.00
11710;BME280;5911;51.036;6.972;2023-05-21T08:25:57;100741.88;;;17.42;100.00
11710;BME280;5911;51.036;6.972;2023-05-21T08:28:25;100741.88;;;17.50;100.00
11710;BME280;5911;51.036;6.972;2023-05-21T08:30:55;100744.56;;;17.50;100.00
11710;BME280;5911;51.036;6.972;2023-05-21T08:33:23;100728.69;;;17.57;100.00
11710;BME280;5911;51.036;6.972;2023-05-21T08:35:52;100734.88;;;17.57;100.00
11710;BME280;5911;51.036;6.972;2023-05-21T08:38:26;100694.88;;;17.41;100.00
11710;BME280;5911;51.036;6.972;2023-05-21T08:40:57;100736.75;;;17.65;100.00
11710;BME280;5911;51.036;6.972;2023-05-21T08:43:26;100737.25;;;17.69;100.00
11710;BME280;5911;51.036;6.972;2023-05-21T08:45:59;100725.22;;;17.65;100.00
11710;BME280;5911;51.036;6.972;2023-05-21T08:48:30;100720.91;;;17.72;100.00
11710;BME280;5911;51.036;6.972;2023-05-21T08:50:58;100730.88;;;17.86;100.00
11710;BME280;5911;51.036;6.972;2023-05-21T08:53:32;100725.19;;;17.89;100.00
11710;BME280;5911;51.036;6.972;2023-05-21T08:56:04;100719.84;;;17.97;100.00
11710;BME280;5911;51.036;6.972;2023-05-21T08:58:47;100714.84;;;17.94;100.00
11710;BME280;5911;51.036;6.972;2023-05-21T09:01:21;100724.97;;;18.07;100.00
11710;BME280;5911;51.036;6.972;2023-05-21T09:04:02;100718.81;;;18.06;100.00
11710;BME280;5911;51.036;6.972;2023-05-21T09:06:53;100699.81;;;18.01;100.00
11710;BME280;5911;51.036;6.972;2023-05-21T09:09:48;100699.09;;;18.15;100.00
11710;BME280;5911;51.036;6.972;2023-05-21T09:12:19;100702.75;;;18.22;100.00
11710;BME280;5911;51.036;6.972;2023-05-21T09:14:48;100706.75;;;18.26;100.00
11710;BME280;5911;51.036;6.972;2023-05-21T09:17:21;100708.91;;;18.31;100.00
11710;BME280;5911;51.036;6.972;2023-05-21T09:20:10;100704.69;;;18.37;100.00
11710;BME280;5911;51.036;6.972;2023-05-21T09:22:49;100695.50;;;18.39;100.00
11710;BME280;5911;51.036;6.972;2023-05-21T09:25:21;100702.66;;;18.39;100.00
11710;BME280;5911;51.036;6.972;2023-05-21T09:27:50;100702.00;;;18.45;100.00
11710;BME280;5911;51.036;6.972;2023-05-21T09:30:18;100697.66;;;18.44;100.00
11710;BME280;5911;51.036;6.972;2023-05-21T09:32:56;100696.81;;;18.43;100.00
11710;BME280;5911;51.036;6.972;2023-05-21T09:35:25;100705.44;;;18.53;100.00
11710;BME280;5911;51.036;6.972;2023-05-21T09:37:54;100704.44;;;18.54;100.00
11710;BME280;5911;51.036;6.972;2023-05-21T09:40:25;100702.41;;;18.65;100.00
11710;BME280;5911;51.036;6.972;2023-05-21T09:42:54;100713.22;;;18.71;100.00
11710;BME280;5911;51.036;6.972;2023-05-21T09:45:23;100701.47;;;18.80;100.00
11710;BME280;5911;51.036;6.972;2023-05-21T09:47:55;100695.78;;;18.83;100.00
11710;BME280;5911;51.036;6.972;2023-05-21T09:50:24;100706.72;;;18.96;100.00
11710;BME280;5911;51.036;6.972;2023-05-21T09:52:54;100692.09;;;18.84;100.00
11710;BME280;5911;51.036;6.972;2023-05-21T09:55:25;100684.03;;;18.92;100.00
11710;BME280;5911;51.036;6.972;2023-05-21T09:57:53;100687.00;;;18.97;100.00
11710;BME280;5911;51.036;6.972;2023-05-21T10:00:23;100695.91;;;19.13;100.00
11710;BME280;5911;51.036;6.972;2023-05-21T10:02:54;100695.22;;;19.19;100.00
11710;BME280;5911;51.036;6.972;2023-05-21T10:05:25;100691.19;;;19.23;100.00
11710;BME280;5911;51.036;6.972;2023-05-21T10:07:59;100685.22;;;19.36;100.00
11710;BME280;5911;51.036;6.972;2023-05-21T10:10:30;100687.53;;;19.39;100.00
11710;BME280;5911;51.036;6.972;2023-05-21T10:13:03;100689.28;;;19.46;100.00
11710;BME280;5911;51.036;6.972;2023-05-21T10:15:41;100666.56;;;19.42;100.00
11710;BME280;5911;51.036;6.972;2023-05-21T10:18:12;100685.00;;;19.60;100.00
11710;BME280;5911;51.036;6.972;2023-05-21T10:20:40;100674.97;;;19.62;100.00
11710;BME280;5911;51.036;6.972;2023-05-21T10:23:09;100680.41;;;19.69;100.00
11710;BME280;5911;51.036;6.972;2023-05-21T10:25:40;100683.66;;;19.79;100.00
11710;BME280;5911;51.036;6.972;2023-05-21T10:28:08;100672.41;;;19.83;100.00
11710;BME280;5911;51.036;6.972;2023-05-21T10:30:36;100678.59;;;19.98;100.00
11710;BME280;5911;51.036;6.972;2023-05-21T10:33:05;100667.31;;;20.03;100.00
11710;BME280;5911;51.036;6.972;2023-05-21T10:35:33;100660.50;;;20.15;100.00
11710;BME280;5911;51.036;6.972;2023-05-21T10:38:06;100648.81;;;20.38;100.00
11710;BME280;5911;51.036;6.972;2023-05-21T10:40:34;100649.19;;;20.70;100.00
11710;BME280;5911;51.036;6.972;2023-05-21T10:43:20;100651.31;;;20.96;96.73
11710;BME280;5911;51.036;6.972;2023-05-21T10:46:14;100647.78;;;21.17;95.04
11710;BME280;5911;51.036;6.972;2023-05-21T10:48:56;100640.97;;;21.15;94.85
11710;BME280;5911;51.036;6.972;2023-05-21T10:51:28;100646.53;;;21.34;92.83
11710;BME280;5911;51.036;6.972;2023-05-21T10:54:23;100645.00;;;21.25;94.61
11710;BME280;5911;51.036;6.972;2023-05-21T10:56:58;100640.56;;;21.18;92.23
11710;BME280;5911;51.036;6.972;2023-05-21T10:59:35;100640.31;;;21.34;94.44
11710;BME280;5911;51.036;6.972;2023-05-21T11:02:08;100622.69;;;21.25;92.38
11710;BME280;5911;51.036;6.972;2023-05-21T11:04:39;100631.63;;;21.32;92.23
11710;BME280;5911;51.036;6.972;2023-05-21T11:07:12;100642.44;;;21.38;94.21
11710;BME280;5911;51.036;6.972;2023-05-21T11:09:40;100640.50;;;21.60;92.85
11710;BME280;5911;51.036;6.972;2023-05-21T11:12:07;100635.59;;;21.98;91.87
11710;BME280;5911;51.036;6.972;2023-05-21T11:14:38;100630.38;;;22.31;87.83
11710;BME280;5911;51.036;6.972;2023-05-21T11:17:12;100635.63;;;22.53;85.05
11710;BME280;5911;51.036;6.972;2023-05-21T11:19:41;100620.47;;;22.38;85.26
11710;BME280;5911;51.036;6.972;2023-05-21T11:22:20;100635.19;;;22.49;84.48
11710;BME280;5911;51.036;6.972;2023-05-21T11:24:49;100629.28;;;22.80;84.22
11710;BME280;5911;51.036;6.972;2023-05-21T11:27:34;100630.78;;;23.15;82.35
11710;BME280;5911;51.036;6.972;2023-05-21T11:30:05;100617.94;;;23.37;80.11
11710;BME280;5911;51.036;6.972;2023-05-21T11:32:37;100629.91;;;23.81;77.55
11710;BME280;5911;51.036;6.972;2023-05-21T11:35:12;100646.00;;;24.01;74.94
11710;BME280;5911;51.036;6.972;2023-05-21T11:37:40;100639.31;;;24.23;73.81
11710;BME280;5911;51.036;6.972;2023-05-21T11:40:32;100642.63;;;24.25;74.37
11710;BME280;5911;51.036;6.972;2023-05-21T11:43:00;100635.16;;;24.27;75.33
11710;BME280;5911;51.036;6.972;2023-05-21T11:45:30;100634.28;;;24.33;73.24
11710;BME280;5911;51.036;6.972;2023-05-21T11:47:59;100631.06;;;24.56;69.81
11710;BME280;5911;51.036;6.972;2023-05-21T11:50:27;100625.47;;;24.58;68.28
11710;BME280;5911;51.036;6.972;2023-05-21T11:52:56;100625.63;;;24.63;67.99
11710;BME280;5911;51.036;6.972;2023-05-21T11:55:26;100623.34;;;24.60;69.33
11710;BME280;5911;51.036;6.972;2023-05-21T11:57:54;100628.91;;;24.71;68.24
11710;BME280;5911;51.036;6.972;2023-05-21T12:00:22;100625.91;;;24.86;67.10
11710;BME280;5911;51.036;6.972;2023-05-21T12:02:51;100619.16;;;25.27;69.04
11710;BME280;5911;51.036;6.972;2023-05-21T12:05:22;100623.72;;;25.51;67.23
11710;BME280;5911;51.036;6.972;2023-05-21T12:07:50;100623.25;;;25.79;64.77
11710;BME280;5911;51.036;6.972;2023-05-21T12:10:20;100622.38;;;25.60;63.55
11710;BME280;5911;51.036;6.972;2023-05-21T12:12:49;100627.47;;;25.50;64.49
11710;BME280;5911;51.036;6.972;2023-05-21T12:15:23;100616.88;;;25.73;63.98
11710;BME280;5911;51.036;6.972;2023-05-21T12:17:53;100618.59;;;25.86;66.34
11710;BME280;5911;51.036;6.972;2023-05-21T12:20:21;100616.59;;;25.81;61.19
11710;BME280;5911;51.036;6.972;2023-05-21T12:22:49;100615.41;;;26.25;61.62
11710;BME280;5911;51.036;6.972;2023-05-21T12:25:18;100623.34;;;26.57;59.63
11710;BME280;5911;51.036;6.972;2023-05-21T12:27:47;100614.66;;;26.67;58.31
11710;BME280;5911;51.036;6.972;2023-05-21T12:30:18;100622.84;;;26.90;59.18
11710;BME280;5911;51.036;6.972;2023-05-21T12:32:47;100617.34;;;26.96;57.34
11710;BME280;5911;51.036;6.972;2023-05-21T12:35:23;100600.88;;;26.98;56.39
11710;BME280;5911;51.036;6.972;2023-05-21T12:37:51;100566.84;;;26.60;57.92
11710;BME280;5911;51.036;6.972;2023-05-21T12:40:19;100617.34;;;26.96;58.55
11710;BME280;5911;51.036;6.972;2023-05-21T12:42:48;100612.44;;;26.75;58.68
11710;BME280;5911;51.036;6.972;2023-05-21T12:45:16;100620.06;;;26.67;60.82
11710;BME280;5911;51.036;6.972;2023-05-21T12:47:47;100619.34;;;26.59;61.30
11710;BME280;5911;51.036;6.972;2023-05-21T12:50:19;100609.91;;;26.50;60.50
11710;BME280;5911;51.036;6.972;2023-05-21T12:52:52;100598.06;;;26.33;60.35
11710;BME280;5911;51.036;6.972;2023-05-21T12:55:21;100597.47;;;26.13;61.96
11710;BME280;5911;51.036;6.972;2023-05-21T12:57:49;100597.28;;;25.96;63.19
11710;BME280;5911;51.036;6.972;2023-05-21T13:00:22;100599.72;;;25.98;64.58
11710;BME280;5911;51.036;6.972;2023-05-21T13:02:50;100595.97;;;25.99;63.25
11710;BME280;5911;51.036;6.972;2023-05-21T13:05:18;100597.31;;;26.26;63.20
11710;BME280;5911;51.036;6.972;2023-05-21T13:07:46;100596.72;;;26.42;61.98
11710;BME280;5911;51.036;6.972;2023-05-21T13:10:18;100577.81;;;26.54;60.61